Petersburg, VA

2:46 AM EST on November 29, 2014 (GMT -0500)
Richmond International | Change Station
CLOSE
Current Station
Airport
Location: Richmond,
Elevation: 161 ft
Nearby Weather Stations

Elev 161 ft 37.51 °N, 77.32 °W | Updated 52 minutes ago

Clear
Clear
27 °F
Feels Like 22 °F
N
5
Wind Variable Wind from ESE

Today
High -- | Low -- °F
--% Chance of Precip.
Yesterday
High -- | Low -- °F
Precip. -- in
7:02 AM 4:52 PM
Waxing Crescent, 49% visible
Pressure 30.32 in
Visibility 10.0 miles
Clouds Few 30000 ft
Windchill 22 °F
Dew Point 22 °F
Humidity 81%
Rainfall 0.00 in
Snow Depth Not available.
UV 0 out of 12
Pollen .10 out of 12
Air Quality Not available.
Flu Activity Not available.
METAR KRIC 290654Z 12004KT 10SM FEW300 M03/M06 A3030 RMK AO2 SLP268 T10281056

More Conditions Fewer Conditions

Pressure 30.32 in
Visibility 10.0 miles
Clouds Few 30000 ft
Windchill 22 °F
Dew Point 22 °F
Humidity 81%
Rainfall 0.00 in
Snow Depth Not available.
UV 0 out of 12
Pollen .10 out of 12
Air Quality Not available.
Flu Activity Not available.
METAR KRIC 290654Z 12004KT 10SM FEW300 M03/M06 A3030 RMK AO2 SLP268 T10281056

More Conditions Fewer Conditions

10-Day Weather Forecast

Almanac

Astronomy

Nov. 29, 2014 Rise Set
Actual Time
Civil Twilight
Nautical Twilight
Astronomical Twilight
Moon
Length of Visible Light
Length of Day
Tomorrow will be .
, % of the Moon is Illuminated

Today's Extremes

State Highs State Lows

Community

WunderPhotos

Upload Photos

1,774,432 photos uploaded!

WunderBlogs® & News

Nearby

Air Quality

  Air Quality AQ Index Pollutant
Not available.

Snow Depth

Station Depth Elevation

Earthquake Activity

City Distance Mag. Time & Date
Minimum magnitude displayed is 2.5.

Coastal Water Temperatures

Place Temperature

Nearby Weather Stations